Time,TemperatureF,DewpointF,PressureIn,WindDirection,WindDirectionDegrees,WindSpeedMPH,WindSpeedGustMPH,Humidity,HourlyPrecipIn,Conditions,Clouds,dailyrainin,SoftwareType,DateUTC
2013-06-24 00:04:00,53.1,49.7,30.21,WNW,284,0.0,2.0,88,0.00,CLR,,0.43,WeatherDisplay:10.37,2013-06-23 14:04:00,
2013-06-24 00:09:00,53.2,49.7,30.20,WNW,290,0.0,0.0,88,0.00,CLR,,0.43,WeatherDisplay:10.37,2013-06-23 14:09:00,
2013-06-24 00:14:00,53.2,49.8,30.20,WNW,298,0.0,1.0,88,0.00,CLR,,0.43,WeatherDisplay:10.37,2013-06-23 14:14:00,
2013-06-24 00:19:00,53.2,49.7,30.20,WSW,240,0.0,2.0,88,0.00,CLR,,0.43,WeatherDisplay:10.37,2013-06-23 14:19:00,
2013-06-24 00:29:00,53.1,49.6,30.20,WNW,297,1.0,4.0,88,0.00,CLR,,0.43,WeatherDisplay:10.37,2013-06-23 14:29:00,
2013-06-24 00:34:00,53.1,49.6,30.19,NW,310,1.0,1.0,88,0.00,CLR,,0.43,WeatherDisplay:10.37,2013-06-23 14:34:00,
2013-06-24 00:39:00,53.0,49.5,30.19,NW,310,0.0,2.0,88,0.00,CLR,,0.43,WeatherDisplay:10.37,2013-06-23 14:39:00,
2013-06-24 00:44:00,52.9,49.4,30.19,WNW,298,2.0,3.0,88,0.00,CLR,,0.43,WeatherDisplay:10.37,2013-06-23 14:44:00,
2013-06-24 00:49:00,52.9,49.4,30.18,WNW,286,1.0,2.0,88,0.00,CLR,,0.43,WeatherDisplay:10.37,2013-06-23 14:49:00,
2013-06-24 00:54:00,52.9,49.4,30.18,WNW,286,1.0,2.0,88,0.00,CLR,,0.43,WeatherDisplay:10.37,2013-06-23 14:54:00,
2013-06-24 00:59:00,52.9,49.4,30.18,WNW,290,0.0,2.0,88,0.00,CLR,,0.43,WeatherDisplay:10.37,2013-06-23 14:59:00,
2013-06-24 01:04:00,53.1,49.6,30.18,NW,309,0.0,2.0,88,0.00,CLR,,0.43,WeatherDisplay:10.37,2013-06-23 15:04:00,
2013-06-24 01:09:00,53.2,49.7,30.18,NW,309,0.0,2.0,88,0.00,CLR,,0.43,WeatherDisplay:10.37,2013-06-23 15:09:00,
2013-06-24 01:14:00,53.1,49.7,30.18,NW,304,0.0,1.0,88,0.00,CLR,,0.43,WeatherDisplay:10.37,2013-06-23 15:14:00,
2013-06-24 01:19:00,53.1,49.7,30.18,NW,323,0.0,1.0,88,0.00,CLR,,0.43,WeatherDisplay:10.37,2013-06-23 15:19:00,
2013-06-24 01:24:00,53.1,49.6,30.18,NW,323,0.0,2.0,88,0.00,CLR,,0.43,WeatherDisplay:10.37,2013-06-23 15:24:00,
2013-06-24 01:29:00,52.9,49.4,30.18,NNW,328,0.0,2.0,88,0.00,CLR,,0.43,WeatherDisplay:10.37,2013-06-23 15:29:00,
2013-06-24 01:35:00,52.8,49.4,30.19,NNW,345,1.0,4.0,88,0.00,CLR,,0.43,WeatherDisplay:10.37,2013-06-23 15:35:00,
2013-06-24 01:44:00,52.5,49.1,30.18,NNW,345,0.0,2.0,88,0.00,CLR,,0.43,WeatherDisplay:10.37,2013-06-23 15:44:00,
2013-06-24 01:49:00,52.3,48.9,30.18,NNW,338,1.0,2.0,88,0.00,CLR,,0.43,WeatherDisplay:10.37,2013-06-23 15:49:00,
2013-06-24 01:54:00,52.3,48.9,30.18,NNW,339,1.0,3.0,88,0.00,CLR,,0.43,WeatherDisplay:10.37,2013-06-23 15:54:00,
2013-06-24 02:04:00,52.2,48.7,30.18,NNW,328,2.0,3.0,88,0.00,CLR,,0.43,WeatherDisplay:10.37,2013-06-23 16:04:00,
2013-06-24 02:14:00,51.8,48.4,30.18,NNW,341,2.0,6.0,88,0.00,CLR,,0.43,WeatherDisplay:10.37,2013-06-23 16:14:00,
2013-06-24 02:19:00,51.8,48.4,30.18,NNW,336,1.0,3.0,88,0.00,CLR,,0.43,WeatherDisplay:10.37,2013-06-23 16:19:00,
2013-06-24 02:24:00,52.0,48.5,30.18,NNW,328,1.0,2.0,88,0.00,CLR,,0.43,WeatherDisplay:10.37,2013-06-23 16:24:00,
2013-06-24 02:29:00,52.0,48.5,30.17,NW,325,1.0,3.0,88,0.00,CLR,,0.43,WeatherDisplay:10.37,2013-06-23 16:29:00,
2013-06-24 02:40:00,51.9,48.5,30.17,NNW,329,1.0,2.0,88,0.00,CLR,,0.43,WeatherDisplay:10.37,2013-06-23 16:40:00,
2013-06-24 02:49:00,51.6,48.2,30.17,North,349,2.0,4.0,88,0.00,CLR,,0.43,WeatherDisplay:10.37,2013-06-23 16:49:00,
2013-06-24 02:54:00,51.6,48.2,30.17,NNW,341,1.0,3.0,88,0.00,CLR,,0.43,WeatherDisplay:10.37,2013-06-23 16:54:00,
2013-06-24 02:59:00,51.6,48.2,30.17,NNW,331,0.0,2.0,88,0.00,CLR,,0.43,WeatherDisplay:10.37,2013-06-23 16:59:00,
2013-06-24 03:09:00,51.6,48.2,30.16,NW,320,1.0,4.0,88,0.00,CLR,,0.43,WeatherDisplay:10.37,2013-06-23 17:09:00,
2013-06-24 03:14:00,51.9,48.8,30.16,NW,320,1.0,3.0,89,0.00,CLR,,0.43,WeatherDisplay:10.37,2013-06-23 17:14:00,
2013-06-24 03:19:00,52.0,48.5,30.16,NW,323,0.0,3.0,88,0.00,CLR,,0.43,WeatherDisplay:10.37,2013-06-23 17:19:00,
2013-06-24 03:24:00,52.0,48.5,30.17,NNW,338,0.0,1.0,88,0.00,CLR,,0.43,WeatherDisplay:10.37,2013-06-23 17:24:00,
2013-06-24 03:29:00,52.1,48.9,30.17,North,8,0.0,1.0,89,0.00,CLR,,0.43,WeatherDisplay:10.37,2013-06-23 17:29:00,
2013-06-24 03:34:00,52.2,49.0,30.17,NNW,348,0.0,1.0,89,0.00,CLR,,0.43,WeatherDisplay:10.37,2013-06-23 17:34:00,
2013-06-24 03:39:00,52.2,49.0,30.17,NNW,333,0.0,1.0,89,0.00,CLR,,0.43,WeatherDisplay:10.37,2013-06-23 17:39:00,
2013-06-24 03:44:00,52.2,49.0,30.16,NW,313,0.0,1.0,89,0.00,CLR,,0.43,WeatherDisplay:10.37,2013-06-23 17:44:00,
2013-06-24 03:49:00,52.2,49.0,30.16,NW,307,0.0,2.0,89,0.00,CLR,,0.43,WeatherDisplay:10.37,2013-06-23 17:49:00,
2013-06-24 03:54:00,52.2,49.0,30.15,WNW,286,0.0,2.0,89,0.00,CLR,,0.43,WeatherDisplay:10.37,2013-06-23 17:54:00,
2013-06-24 03:59:00,52.2,49.0,30.15,WNW,289,0.0,1.0,89,0.00,CLR,,0.43,WeatherDisplay:10.37,2013-06-23 17:59:00,
2013-06-24 04:04:00,52.0,48.5,30.15,NNW,332,1.0,2.0,88,0.00,CLR,,0.43,WeatherDisplay:10.37,2013-06-23 18:04:00,
2013-06-24 04:09:00,51.9,48.7,30.16,NNW,344,0.0,1.0,89,0.00,CLR,,0.43,WeatherDisplay:10.37,2013-06-23 18:09:00,
2013-06-24 04:14:00,52.0,48.8,30.16,NNW,348,0.0,0.0,89,0.00,CLR,,0.43,WeatherDisplay:10.37,2013-06-23 18:14:00,
2013-06-24 04:19:00,52.0,48.8,30.16,North,354,0.0,0.0,89,0.00,CLR,,0.43,WeatherDisplay:10.37,2013-06-23 18:19:00,
2013-06-24 04:24:00,52.0,48.8,30.15,NNW,340,0.0,2.0,89,0.00,CLR,,0.43,WeatherDisplay:10.37,2013-06-23 18:24:00,
2013-06-24 04:29:00,52.0,48.8,30.15,NW,321,0.0,2.0,89,0.00,CLR,,0.43,WeatherDisplay:10.37,2013-06-23 18:29:00,
2013-06-24 04:34:00,52.0,48.8,30.16,NNW,345,1.0,2.0,89,0.00,CLR,,0.43,WeatherDisplay:10.37,2013-06-23 18:34:00,
2013-06-24 04:39:00,52.2,49.0,30.15,NNW,330,0.0,1.0,89,0.00,CLR,,0.43,WeatherDisplay:10.37,2013-06-23 18:39:00,
2013-06-24 04:44:00,52.0,48.8,30.15,NNW,331,0.0,2.0,89,0.00,CLR,,0.43,WeatherDisplay:10.37,2013-06-23 18:44:00,
2013-06-24 04:49:00,52.2,49.0,30.15,NNW,327,0.0,0.0,89,0.00,CLR,,0.43,WeatherDisplay:10.37,2013-06-23 18:49:00,
2013-06-24 04:54:00,52.2,49.0,30.15,NW,326,1.0,2.0,89,0.00,CLR,,0.43,WeatherDisplay:10.37,2013-06-23 18:54:00,
2013-06-24 04:59:00,52.2,49.1,30.15,NNW,330,0.0,1.0,89,0.00,CLR,,0.43,WeatherDisplay:10.37,2013-06-23 18:59:00,
2013-06-24 05:04:00,52.3,49.1,30.15,NW,320,1.0,1.0,89,0.00,CLR,,0.43,WeatherDisplay:10.37,2013-06-23 19:04:00,
2013-06-24 05:09:00,52.2,49.0,30.15,NW,322,1.0,1.0,89,0.00,CLR,,0.43,WeatherDisplay:10.37,2013-06-23 19:09:00,
2013-06-24 05:14:00,52.2,49.0,30.15,NNW,330,0.0,0.0,89,0.00,CLR,,0.43,WeatherDisplay:10.37,2013-06-23 19:14:00,
2013-06-24 05:19:00,52.2,49.0,30.15,NNW,341,0.0,1.0,89,0.00,CLR,,0.43,WeatherDisplay:10.37,2013-06-23 19:19:00,
2013-06-24 05:24:00,52.2,49.0,30.15,WSW,250,0.0,0.0,89,0.00,CLR,,0.43,WeatherDisplay:10.37,2013-06-23 19:24:00,
2013-06-24 05:29:00,52.1,49.0,30.15,SW,220,0.0,0.0,89,0.00,CLR,,0.43,WeatherDisplay:10.37,2013-06-23 19:29:00,
2013-06-24 05:34:00,52.0,48.9,30.16,WSW,242,0.0,1.0,89,0.00,CLR,,0.43,WeatherDisplay:10.37,2013-06-23 19:34:00,
2013-06-24 05:39:00,52.2,49.0,30.16,SW,232,0.0,0.0,89,0.00,CLR,,0.43,WeatherDisplay:10.37,2013-06-23 19:39:00,
2013-06-24 05:44:00,52.2,49.0,30.16,SSW,202,0.0,0.0,89,0.00,CLR,,0.43,WeatherDisplay:10.37,2013-06-23 19:44:00,
2013-06-24 05:49:00,52.2,49.0,30.16,SW,217,0.0,0.0,89,0.00,CLR,,0.43,WeatherDisplay:10.37,2013-06-23 19:49:00,
2013-06-24 05:54:00,52.1,49.0,30.16,SSW,202,0.0,0.0,89,0.00,CLR,,0.43,WeatherDisplay:10.37,2013-06-23 19:54:00,
2013-06-24 05:59:00,52.1,48.9,30.16,SSW,196,0.0,0.0,89,0.00,CLR,,0.43,WeatherDisplay:10.37,2013-06-23 19:59:00,
2013-06-24 06:04:00,52.0,48.8,30.16,South,189,0.0,0.0,89,0.00,CLR,,0.43,WeatherDisplay:10.37,2013-06-23 20:04:00,
2013-06-24 06:09:00,52.1,48.9,30.17,SSW,212,0.0,0.0,89,0.00,CLR,,0.43,WeatherDisplay:10.37,2013-06-23 20:09:00,
2013-06-24 06:14:00,52.2,49.0,30.17,NW,325,0.0,0.0,89,0.00,CLR,,0.43,WeatherDisplay:10.37,2013-06-23 20:14:00,
2013-06-24 06:19:00,52.0,48.8,30.17,NNW,344,0.0,0.0,89,0.00,CLR,,0.43,WeatherDisplay:10.37,2013-06-23 20:19:00,
2013-06-24 06:24:00,52.0,48.8,30.17,NNW,332,0.0,1.0,89,0.00,CLR,,0.43,WeatherDisplay:10.37,2013-06-23 20:24:00,
2013-06-24 06:29:00,51.8,48.7,30.17,NW,321,1.0,2.0,89,0.00,CLR,,0.43,WeatherDisplay:10.37,2013-06-23 20:29:00,
2013-06-24 06:34:00,51.8,48.7,30.17,NNW,327,0.0,1.0,89,0.00,CLR,,0.43,WeatherDisplay:10.37,2013-06-23 20:34:00,
2013-06-24 06:39:00,51.8,48.7,30.17,WNW,287,0.0,0.0,89,0.00,CLR,,0.43,WeatherDisplay:10.37,2013-06-23 20:39:00,
2013-06-24 06:44:00,51.6,48.5,30.17,WNW,285,0.0,0.0,89,0.00,CLR,,0.43,WeatherDisplay:10.37,2013-06-23 20:44:00,
2013-06-24 06:49:00,51.8,48.7,30.17,WNW,299,0.0,0.0,89,0.00,CLR,,0.43,WeatherDisplay:10.37,2013-06-23 20:49:00,
2013-06-24 06:54:00,51.8,48.7,30.18,NW,318,1.0,2.0,89,0.00,CLR,,0.43,WeatherDisplay:10.37,2013-06-23 20:54:00,
2013-06-24 06:59:00,51.8,48.7,30.18,NNE,17,0.0,0.0,89,0.00,CLR,,0.43,WeatherDisplay:10.37,2013-06-23 20:59:00,
2013-06-24 07:04:00,51.6,48.5,30.18,North,3,0.0,1.0,89,0.00,CLR,,0.43,WeatherDisplay:10.37,2013-06-23 21:04:00,
2013-06-24 07:09:00,51.6,48.5,30.17,NNW,343,0.0,0.0,89,0.00,CLR,,0.43,WeatherDisplay:10.37,2013-06-23 21:09:00,
2013-06-24 07:14:00,51.8,48.6,30.17,North,355,0.0,1.0,89,0.00,CLR,,0.43,WeatherDisplay:10.37,2013-06-23 21:14:00,
2013-06-24 07:19:00,51.6,48.5,30.17,NNE,17,0.0,1.0,89,0.00,CLR,,0.43,WeatherDisplay:10.37,2013-06-23 21:19:00,
2013-06-24 07:24:00,51.6,48.5,30.17,NNW,337,0.0,1.0,89,0.00,CLR,,0.43,WeatherDisplay:10.37,2013-06-23 21:24:00,
2013-06-24 07:29:00,51.6,48.5,30.17,NNW,345,1.0,2.0,89,0.00,CLR,,0.43,WeatherDisplay:10.37,2013-06-23 21:29:00,
2013-06-24 07:34:00,51.5,48.4,30.17,NNW,343,1.0,2.0,89,0.00,CLR,,0.43,WeatherDisplay:10.37,2013-06-23 21:34:00,
2013-06-24 07:39:00,51.6,48.5,30.17,NNW,336,1.0,2.0,89,0.00,CLR,,0.43,WeatherDisplay:10.37,2013-06-23 21:39:00,
2013-06-24 07:44:00,51.6,48.5,30.17,NNW,347,5.0,29.0,89,0.00,CLR,,0.43,WeatherDisplay:10.37,2013-06-23 21:44:00,
2013-06-24 07:49:00,51.6,48.5,30.17,NNW,327,17.0,29.0,89,0.00,CLR,,0.43,WeatherDisplay:10.37,2013-06-23 21:49:00,
2013-06-24 07:54:00,51.6,48.5,30.17,NW,323,1.0,1.0,89,0.00,CLR,,0.43,WeatherDisplay:10.37,2013-06-23 21:54:00,
2013-06-24 07:59:00,51.6,48.5,30.17,NNW,340,0.0,1.0,89,0.00,CLR,,0.43,WeatherDisplay:10.37,2013-06-23 21:59:00,
2013-06-24 08:04:00,51.6,48.5,30.17,NNW,343,0.0,2.0,89,0.00,CLR,,0.43,WeatherDisplay:10.37,2013-06-23 22:04:00,
2013-06-24 08:09:00,51.7,48.5,30.16,NNW,329,0.0,1.0,89,0.00,CLR,,0.43,WeatherDisplay:10.37,2013-06-23 22:09:00,
2013-06-24 08:19:00,51.8,48.7,30.16,NNW,333,1.0,2.0,89,0.00,CLR,,0.43,WeatherDisplay:10.37,2013-06-23 22:19:00,
2013-06-24 08:24:00,52.0,48.8,30.16,NW,325,0.0,1.0,89,0.00,CLR,,0.43,WeatherDisplay:10.37,2013-06-23 22:24:00,
2013-06-24 08:29:00,52.0,48.9,30.17,NW,325,0.0,2.0,89,0.00,CLR,,0.43,WeatherDisplay:10.37,2013-06-23 22:29:00,
2013-06-24 08:34:00,52.2,49.0,30.16,NW,324,0.0,2.0,89,0.00,CLR,,0.43,WeatherDisplay:10.37,2013-06-23 22:34:00,
2013-06-24 08:39:00,52.3,49.2,30.16,NW,326,1.0,2.0,89,0.00,CLR,,0.43,WeatherDisplay:10.37,2013-06-23 22:39:00,
2013-06-24 08:44:00,52.5,49.4,30.16,NW,322,0.0,1.0,89,0.00,CLR,,0.43,WeatherDisplay:10.37,2013-06-23 22:44:00,
2013-06-24 08:49:00,52.7,49.5,30.16,NW,316,0.0,1.0,89,0.00,CLR,,0.43,WeatherDisplay:10.37,2013-06-23 22:49:00,
2013-06-24 08:54:00,52.9,49.7,30.16,NW,318,0.0,2.0,89,0.00,CLR,,0.43,WeatherDisplay:10.37,2013-06-23 22:54:00,
2013-06-24 08:59:00,52.9,49.7,30.16,NW,317,0.0,0.0,89,0.00,RA,,0.00,WeatherDisplay:10.37,2013-06-23 22:59:00,
2013-06-24 09:04:00,52.9,49.7,30.16,NW,315,0.0,2.0,89,0.00,RA,,0.00,WeatherDisplay:10.37,2013-06-23 23:04:00,
2013-06-24 09:09:00,53.1,49.9,30.16,NW,312,0.0,2.0,89,0.00,CLR,,0.00,WeatherDisplay:10.37,2013-06-23 23:09:00,
2013-06-24 09:14:00,53.2,50.1,30.16,NW,308,1.0,2.0,89,0.00,CLR,,0.00,WeatherDisplay:10.37,2013-06-23 23:14:00,
2013-06-24 09:19:00,53.4,50.0,30.16,WNW,299,0.0,2.0,88,0.00,CLR,,0.00,WeatherDisplay:10.37,2013-06-23 23:19:00,
2013-06-24 09:24:00,53.4,50.0,30.16,WNW,292,1.0,4.0,88,0.00,CLR,,0.00,WeatherDisplay:10.37,2013-06-23 23:24:00,
2013-06-24 09:29:00,53.6,49.8,30.16,WNW,300,0.0,5.0,87,0.00,CLR,,0.00,WeatherDisplay:10.37,2013-06-23 23:29:00,
2013-06-24 09:34:00,53.8,50.0,30.16,NW,305,1.0,3.0,87,0.00,CLR,,0.00,WeatherDisplay:10.37,2013-06-23 23:34:00,
2013-06-24 09:39:00,53.8,50.0,30.15,WNW,292,1.0,3.0,87,0.00,CLR,,0.00,WeatherDisplay:10.37,2013-06-23 23:39:00,
2013-06-24 09:44:00,54.0,50.2,30.15,West,274,3.0,7.0,87,0.00,CLR,,0.00,WeatherDisplay:10.37,2013-06-23 23:44:00,
2013-06-24 09:49:00,54.0,49.9,30.15,West,264,1.0,3.0,86,0.00,CLR,,0.00,WeatherDisplay:10.37,2013-06-23 23:49:00,
2013-06-24 09:54:00,54.1,49.7,30.15,WSW,245,2.0,4.0,85,0.00,CLR,,0.00,WeatherDisplay:10.37,2013-06-23 23:54:00,
2013-06-24 09:59:00,54.3,49.6,30.14,WSW,257,2.0,5.0,84,0.00,CLR,,0.00,WeatherDisplay:10.37,2013-06-23 23:59:00,
2013-06-24 10:04:00,54.3,49.6,30.14,West,262,2.0,4.0,84,0.00,CLR,,0.00,WeatherDisplay:10.37,2013-06-24 00:04:00,
2013-06-24 10:09:00,54.7,49.9,30.14,West,270,0.0,2.0,84,0.00,CLR,,0.00,WeatherDisplay:10.37,2013-06-24 00:09:00,
2013-06-24 10:14:00,54.7,50.0,30.15,West,266,0.0,5.0,84,0.00,CLR,,0.00,WeatherDisplay:10.37,2013-06-24 00:14:00,
2013-06-24 10:19:00,54.7,49.6,30.15,WNW,289,0.0,3.0,83,0.00,CLR,,0.00,WeatherDisplay:10.37,2013-06-24 00:19:00,
2013-06-24 10:24:00,54.8,49.7,30.14,WNW,300,1.0,3.0,83,0.00,CLR,,0.00,WeatherDisplay:10.37,2013-06-24 00:24:00,
2013-06-24 10:29:00,54.9,49.8,30.14,West,278,0.0,1.0,83,0.00,CLR,,0.00,WeatherDisplay:10.37,2013-06-24 00:29:00,
2013-06-24 10:34:00,55.0,50.0,30.14,WSW,248,2.0,4.0,83,0.00,CLR,,0.00,WeatherDisplay:10.37,2013-06-24 00:34:00,
2013-06-24 10:39:00,55.0,50.0,30.14,WSW,244,1.0,6.0,83,0.00,CLR,,0.00,WeatherDisplay:10.37,2013-06-24 00:39:00,
2013-06-24 10:44:00,55.2,49.8,30.14,WSW,248,1.0,4.0,82,0.00,CLR,,0.00,WeatherDisplay:10.37,2013-06-24 00:44:00,
2013-06-24 10:49:00,55.2,49.8,30.14,West,262,1.0,3.0,82,0.00,CLR,,0.00,WeatherDisplay:10.37,2013-06-24 00:49:00,
2013-06-24 10:54:00,55.3,49.6,30.13,WNW,287,0.0,3.0,81,0.00,CLR,,0.00,WeatherDisplay:10.37,2013-06-24 00:54:00,
2013-06-24 10:59:00,55.6,50.2,30.13,West,275,0.0,3.0,82,0.00,CLR,,0.00,WeatherDisplay:10.37,2013-06-24 00:59:00,
2013-06-24 11:04:00,55.8,50.0,30.13,West,276,2.0,5.0,81,0.00,CLR,,0.00,WeatherDisplay:10.37,2013-06-24 01:04:00,
2013-06-24 11:09:00,55.8,50.1,30.13,WNW,284,2.0,5.0,81,0.00,CLR,,0.00,WeatherDisplay:10.37,2013-06-24 01:09:00,
2013-06-24 11:14:00,55.9,50.2,30.13,West,270,1.0,6.0,81,0.00,CLR,,0.00,WeatherDisplay:10.37,2013-06-24 01:14:00,
2013-06-24 11:19:00,55.9,49.9,30.12,WSW,244,3.0,5.0,80,0.00,CLR,,0.00,WeatherDisplay:10.37,2013-06-24 01:19:00,
2013-06-24 11:24:00,55.9,49.9,30.12,WSW,246,1.0,5.0,80,0.00,CLR,,0.00,WeatherDisplay:10.37,2013-06-24 01:24:00,
2013-06-24 11:29:00,56.1,49.6,30.12,SW,227,2.0,3.0,79,0.00,CLR,,0.00,WeatherDisplay:10.37,2013-06-24 01:29:00,
2013-06-24 11:34:00,56.2,49.8,30.12,South,179,0.0,2.0,79,0.00,CLR,,0.00,WeatherDisplay:10.37,2013-06-24 01:34:00,
2013-06-24 11:39:00,56.5,50.0,30.11,SSE,148,0.0,2.0,79,0.00,CLR,,0.00,WeatherDisplay:10.37,2013-06-24 01:39:00,
2013-06-24 11:44:00,56.5,50.1,30.11,SSW,193,1.0,4.0,79,0.00,CLR,,0.00,WeatherDisplay:10.37,2013-06-24 01:44:00,
2013-06-24 11:49:00,56.8,50.4,30.10,SW,229,1.0,4.0,79,0.00,CLR,,0.00,WeatherDisplay:10.37,2013-06-24 01:49:00,
2013-06-24 11:54:00,57.0,50.2,30.09,WSW,247,2.0,5.0,78,0.00,CLR,,0.00,WeatherDisplay:10.37,2013-06-24 01:54:00,
2013-06-24 11:59:00,57.1,50.3,30.09,WSW,250,1.0,3.0,78,0.00,CLR,,0.00,WeatherDisplay:10.37,2013-06-24 01:59:00,
2013-06-24 12:04:00,57.4,50.6,30.09,SW,225,3.0,7.0,78,0.00,CLR,,0.00,WeatherDisplay:10.37,2013-06-24 02:04:00,
2013-06-24 12:09:00,57.6,50.4,30.08,SSW,204,0.0,3.0,77,0.00,CLR,,0.00,WeatherDisplay:10.37,2013-06-24 02:09:00,
2013-06-24 12:14:00,57.6,50.5,30.08,SW,219,1.0,4.0,77,0.00,CLR,,0.00,WeatherDisplay:10.37,2013-06-24 02:14:00,
2013-06-24 12:19:00,57.9,50.4,30.08,WNW,287,2.0,7.0,76,0.00,CLR,,0.00,WeatherDisplay:10.37,2013-06-24 02:19:00,
2013-06-24 12:24:00,58.1,50.2,30.07,NW,322,2.0,6.0,75,0.00,CLR,,0.00,WeatherDisplay:10.37,2013-06-24 02:24:00,
2013-06-24 12:29:00,58.3,50.5,30.07,NW,316,3.0,5.0,75,0.00,CLR,,0.00,WeatherDisplay:10.37,2013-06-24 02:29:00,
2013-06-24 12:34:00,58.7,50.8,30.07,NW,315,5.0,8.0,75,0.00,CLR,,0.00,WeatherDisplay:10.37,2013-06-24 02:34:00,
2013-06-24 12:39:00,58.8,50.5,30.07,NW,307,2.0,6.0,74,0.00,CLR,,0.00,WeatherDisplay:10.37,2013-06-24 02:39:00,
2013-06-24 12:44:00,59.1,50.4,30.06,NW,307,2.0,5.0,73,0.00,CLR,,0.00,WeatherDisplay:10.37,2013-06-24 02:44:00,
2013-06-24 12:49:00,59.2,50.5,30.06,NW,308,1.0,6.0,73,0.00,CLR,,0.00,WeatherDisplay:10.37,2013-06-24 02:49:00,
2013-06-24 12:54:00,59.4,50.3,30.06,NW,326,5.0,7.0,72,0.00,CLR,,0.00,WeatherDisplay:10.37,2013-06-24 02:54:00,
2013-06-24 12:59:00,59.2,49.8,30.06,NW,312,2.0,5.0,71,0.00,CLR,,0.00,WeatherDisplay:10.37,2013-06-24 02:59:00,
2013-06-24 13:04:00,59.2,49.8,30.06,WNW,297,1.0,5.0,71,0.00,CLR,,0.00,WeatherDisplay:10.37,2013-06-24 03:04:00,
2013-06-24 13:09:00,59.2,49.8,30.06,WNW,295,2.0,6.0,71,0.00,CLR,,0.00,WeatherDisplay:10.37,2013-06-24 03:09:00,
2013-06-24 13:14:00,59.5,50.1,30.05,NW,311,3.0,5.0,71,0.00,CLR,,0.00,WeatherDisplay:10.37,2013-06-24 03:14:00,
2013-06-24 13:19:00,59.5,49.7,30.05,NW,324,1.0,5.0,70,0.00,CLR,,0.00,WeatherDisplay:10.37,2013-06-24 03:19:00,
2013-06-24 13:24:00,59.5,49.7,30.05,NW,315,2.0,6.0,70,0.00,CLR,,0.00,WeatherDisplay:10.37,2013-06-24 03:24:00,
2013-06-24 13:29:00,59.5,49.3,30.05,WNW,299,2.0,5.0,69,0.00,CLR,,0.00,WeatherDisplay:10.37,2013-06-24 03:29:00,
2013-06-24 13:34:00,59.5,49.4,30.05,NW,308,2.0,5.0,69,0.00,CLR,,0.00,WeatherDisplay:10.37,2013-06-24 03:34:00,
2013-06-24 13:39:00,59.6,49.4,30.05,NNW,339,3.0,6.0,69,0.00,CLR,,0.00,WeatherDisplay:10.37,2013-06-24 03:39:00,
2013-06-24 13:44:00,59.9,49.7,30.05,NW,325,3.0,7.0,69,0.00,CLR,,0.00,WeatherDisplay:10.37,2013-06-24 03:44:00,
2013-06-24 13:49:00,59.9,49.3,30.04,WNW,302,2.0,7.0,68,0.00,CLR,,0.00,WeatherDisplay:10.37,2013-06-24 03:49:00,
2013-06-24 13:54:00,59.9,49.3,30.04,NW,306,1.0,6.0,68,0.00,CLR,,0.00,WeatherDisplay:10.37,2013-06-24 03:54:00,
2013-06-24 13:59:00,60.1,49.1,30.04,NNW,337,3.0,8.0,67,0.00,CLR,,0.00,WeatherDisplay:10.37,2013-06-24 03:59:00,
2013-06-24 14:04:00,60.3,48.9,30.04,NNW,346,3.0,6.0,66,0.00,CLR,,0.00,WeatherDisplay:10.37,2013-06-24 04:04:00,
2013-06-24 14:09:00,60.5,49.0,30.04,NNW,335,3.0,7.0,66,0.00,CLR,,0.00,WeatherDisplay:10.37,2013-06-24 04:09:00,
2013-06-24 14:14:00,60.4,49.0,30.03,WNW,301,2.0,5.0,66,0.00,CLR,,0.00,WeatherDisplay:10.37,2013-06-24 04:14:00,
2013-06-24 14:19:00,60.4,48.9,30.03,WNW,298,0.0,4.0,66,0.00,CLR,,0.00,WeatherDisplay:10.37,2013-06-24 04:19:00,
2013-06-24 14:24:00,60.1,48.7,30.03,WNW,297,1.0,5.0,66,0.00,CLR,,0.00,WeatherDisplay:10.37,2013-06-24 04:24:00,
2013-06-24 14:29:00,60.1,48.7,30.03,West,274,1.0,5.0,66,0.00,CLR,,0.00,WeatherDisplay:10.37,2013-06-24 04:29:00,
2013-06-24 14:34:00,60.2,48.8,30.03,West,274,1.0,3.0,66,0.00,CLR,,0.00,WeatherDisplay:10.37,2013-06-24 04:34:00,
2013-06-24 14:39:00,60.2,48.8,30.03,WNW,297,1.0,3.0,66,0.00,CLR,,0.00,WeatherDisplay:10.37,2013-06-24 04:39:00,
2013-06-24 14:44:00,60.4,49.0,30.02,WNW,300,1.0,3.0,66,0.00,CLR,,0.00,WeatherDisplay:10.37,2013-06-24 04:44:00,
2013-06-24 14:49:00,60.4,49.0,30.02,WNW,298,1.0,5.0,66,0.00,CLR,,0.00,WeatherDisplay:10.37,2013-06-24 04:49:00,
2013-06-24 14:54:00,60.1,48.7,30.02,NW,322,1.0,3.0,66,0.00,CLR,,0.00,WeatherDisplay:10.37,2013-06-24 04:54:00,
2013-06-24 14:59:00,60.1,48.7,30.01,NW,318,1.0,4.0,66,0.00,CLR,,0.00,WeatherDisplay:10.37,2013-06-24 04:59:00,
2013-06-24 15:04:00,59.9,48.5,30.01,NW,315,0.0,4.0,66,0.00,CLR,,0.00,WeatherDisplay:10.37,2013-06-24 05:04:00,
2013-06-24 15:09:00,59.9,48.5,30.01,NW,323,0.0,4.0,66,0.00,CLR,,0.00,WeatherDisplay:10.37,2013-06-24 05:09:00,
2013-06-24 15:14:00,59.9,48.5,30.01,NW,325,1.0,2.0,66,0.00,CLR,,0.00,WeatherDisplay:10.37,2013-06-24 05:14:00,
2013-06-24 15:19:00,59.8,48.4,30.01,NW,317,1.0,2.0,66,0.00,CLR,,0.00,WeatherDisplay:10.37,2013-06-24 05:19:00,
2013-06-24 15:24:00,59.7,48.3,30.01,NW,320,2.0,4.0,66,0.00,CLR,,0.00,WeatherDisplay:10.37,2013-06-24 05:24:00,
2013-06-24 15:29:00,59.7,48.7,30.01,NW,313,0.0,3.0,67,0.00,CLR,,0.00,WeatherDisplay:10.37,2013-06-24 05:29:00,
2013-06-24 15:34:00,59.7,48.7,30.00,NW,317,1.0,2.0,67,0.00,CLR,,0.00,WeatherDisplay:10.37,2013-06-24 05:34:00,
2013-06-24 15:39:00,59.7,48.3,30.00,NW,304,1.0,4.0,66,0.00,CLR,,0.00,WeatherDisplay:10.37,2013-06-24 05:39:00,
2013-06-24 15:49:00,59.5,48.2,30.00,NW,307,0.0,2.0,66,0.00,CLR,,0.00,WeatherDisplay:10.37,2013-06-24 05:49:00,
2013-06-24 15:54:00,59.5,48.6,30.00,WNW,295,1.0,4.0,67,0.00,CLR,,0.00,WeatherDisplay:10.37,2013-06-24 05:54:00,
2013-06-24 15:59:00,59.4,48.4,30.00,WNW,298,1.0,2.0,67,0.00,CLR,,0.00,WeatherDisplay:10.37,2013-06-24 05:59:00,
2013-06-24 16:04:00,59.4,48.4,30.00,WNW,298,1.0,2.0,67,0.00,CLR,,0.00,WeatherDisplay:10.37,2013-06-24 06:04:00,
2013-06-24 16:09:00,59.2,48.2,30.00,WNW,303,1.0,2.0,67,0.00,CLR,,0.00,WeatherDisplay:10.37,2013-06-24 06:09:00,
2013-06-24 16:14:00,59.2,48.2,30.00,WNW,301,0.0,2.0,67,0.00,CLR,,0.00,WeatherDisplay:10.37,2013-06-24 06:14:00,
2013-06-24 16:19:00,59.0,48.1,30.00,NW,305,0.0,3.0,67,0.00,CLR,,0.00,WeatherDisplay:10.37,2013-06-24 06:19:00,
2013-06-24 16:24:00,58.8,47.9,29.99,WNW,295,0.0,2.0,67,0.00,CLR,,0.00,WeatherDisplay:10.37,2013-06-24 06:24:00,
2013-06-24 16:29:00,58.8,48.3,29.99,WSW,257,0.0,1.0,68,0.00,CLR,,0.00,WeatherDisplay:10.37,2013-06-24 06:29:00,
2013-06-24 16:39:00,58.5,47.9,29.99,SW,234,0.0,1.0,68,0.00,CLR,,0.00,WeatherDisplay:10.37,2013-06-24 06:39:00,
2013-06-24 16:44:00,58.3,48.2,29.99,SW,219,0.0,2.0,69,0.00,CLR,,0.00,WeatherDisplay:10.37,2013-06-24 06:44:00,
2013-06-24 16:49:00,58.2,48.4,29.99,South,185,1.0,2.0,70,0.00,CLR,,0.00,WeatherDisplay:10.37,2013-06-24 06:49:00,
2013-06-24 16:59:00,57.9,48.9,29.99,ESE,120,0.0,3.0,72,0.00,CLR,,0.00,WeatherDisplay:10.37,2013-06-24 06:59:00,
2013-06-24 17:04:00,57.9,49.3,29.99,ESE,113,0.0,2.0,73,0.00,CLR,,0.00,WeatherDisplay:10.37,2013-06-24 07:04:00,
2013-06-24 17:09:00,57.9,49.7,30.00,ENE,72,0.0,1.0,74,0.00,CLR,,0.00,WeatherDisplay:10.37,2013-06-24 07:09:00,
2013-06-24 17:14:00,57.6,49.3,30.00,NE,37,0.0,1.0,74,0.00,CLR,,0.00,WeatherDisplay:10.37,2013-06-24 07:14:00,
2013-06-24 17:19:00,57.4,49.5,30.00,North,1,0.0,0.0,75,0.00,CLR,,0.00,WeatherDisplay:10.37,2013-06-24 07:19:00,
2013-06-24 17:24:00,57.0,49.5,30.00,North,349,0.0,0.0,76,0.00,CLR,,0.00,WeatherDisplay:10.37,2013-06-24 07:24:00,
2013-06-24 17:29:00,57.0,49.5,30.00,NW,324,0.0,1.0,76,0.00,CLR,,0.00,WeatherDisplay:10.37,2013-06-24 07:29:00,
2013-06-24 17:34:00,56.8,49.7,30.00,WNW,295,0.0,0.0,77,0.00,CLR,,0.00,WeatherDisplay:10.37,2013-06-24 07:34:00,
2013-06-24 17:39:00,56.8,49.7,30.00,WNW,283,2.0,3.0,77,0.00,CLR,,0.00,WeatherDisplay:10.37,2013-06-24 07:39:00,
2013-06-24 17:44:00,56.7,49.5,30.00,WSW,254,2.0,7.0,77,0.00,CLR,,0.00,WeatherDisplay:10.37,2013-06-24 07:44:00,
2013-06-24 17:54:00,56.5,49.7,30.00,West,274,1.0,6.0,78,0.00,CLR,,0.00,WeatherDisplay:10.37,2013-06-24 07:54:00,
2013-06-24 17:59:00,56.5,49.7,30.00,WSW,254,0.0,3.0,78,0.00,CLR,,0.00,WeatherDisplay:10.37,2013-06-24 07:59:00,
2013-06-24 18:14:00,55.9,49.5,30.00,NNW,348,0.0,1.0,79,0.00,CLR,,0.00,WeatherDisplay:10.37,2013-06-24 08:14:00,
2013-06-24 18:19:00,55.9,49.5,30.00,North,357,0.0,1.0,79,0.00,CLR,,0.00,WeatherDisplay:10.37,2013-06-24 08:19:00,
2013-06-24 18:24:00,55.8,49.3,30.00,NNW,335,0.0,0.0,79,0.00,CLR,,0.00,WeatherDisplay:10.37,2013-06-24 08:24:00,
2013-06-24 18:29:00,55.4,49.0,30.00,NNW,339,0.0,1.0,79,0.00,CLR,,0.00,WeatherDisplay:10.37,2013-06-24 08:29:00,
2013-06-24 18:34:00,55.4,49.0,30.00,NNW,346,0.0,0.0,79,0.00,CLR,,0.00,WeatherDisplay:10.37,2013-06-24 08:34:00,
2013-06-24 18:39:00,55.2,48.8,30.00,WSW,250,2.0,3.0,79,0.00,CLR,,0.00,WeatherDisplay:10.37,2013-06-24 08:39:00,
2013-06-24 18:44:00,55.2,49.2,30.00,SW,231,0.0,2.0,80,0.00,CLR,,0.00,WeatherDisplay:10.37,2013-06-24 08:44:00,
2013-06-24 18:50:00,55.0,49.0,30.00,West,263,0.0,0.0,80,0.00,CLR,,0.00,WeatherDisplay:10.37,2013-06-24 08:50:00,
2013-06-24 18:59:00,55.0,49.3,30.00,WSW,237,0.0,0.0,81,0.00,CLR,,0.00,WeatherDisplay:10.37,2013-06-24 08:59:00,
2013-06-24 19:04:00,54.9,49.1,30.00,WSW,256,0.0,3.0,81,0.00,CLR,,0.00,WeatherDisplay:10.37,2013-06-24 09:04:00,
2013-06-24 19:09:00,54.8,49.1,29.99,West,265,1.0,3.0,81,0.00,CLR,,0.00,WeatherDisplay:10.37,2013-06-24 09:09:00,
2013-06-24 19:14:00,54.7,49.0,29.99,WSW,256,0.0,2.0,81,0.00,CLR,,0.00,WeatherDisplay:10.37,2013-06-24 09:14:00,
2013-06-24 19:19:00,54.9,48.8,29.99,SW,231,1.0,2.0,80,0.00,CLR,,0.00,WeatherDisplay:10.37,2013-06-24 09:19:00,
2013-06-24 19:24:00,54.9,48.8,29.99,WSW,243,0.0,0.0,80,0.00,CLR,,0.00,WeatherDisplay:10.37,2013-06-24 09:24:00,
2013-06-24 19:29:00,54.9,49.1,29.99,West,281,0.0,0.0,81,0.00,CLR,,0.00,WeatherDisplay:10.37,2013-06-24 09:29:00,
2013-06-24 19:34:00,54.7,48.6,29.99,NNW,334,1.0,2.0,80,0.00,CLR,,0.00,WeatherDisplay:10.37,2013-06-24 09:34:00,
2013-06-24 19:39:00,54.3,48.3,29.99,NNE,21,1.0,2.0,80,0.00,CLR,,0.00,WeatherDisplay:10.37,2013-06-24 09:39:00,
2013-06-24 19:49:00,54.1,48.4,29.99,NNE,17,0.0,2.0,81,0.00,CLR,,0.00,WeatherDisplay:10.37,2013-06-24 09:49:00,
2013-06-24 19:54:00,53.8,47.8,29.99,NNE,21,1.0,2.0,80,0.00,CLR,,0.00,WeatherDisplay:10.37,2013-06-24 09:54:00,
2013-06-24 20:04:00,53.4,47.4,29.99,North,0,0.0,1.0,80,0.00,CLR,,0.00,WeatherDisplay:10.37,2013-06-24 10:04:00,
2013-06-24 20:19:00,53.0,47.3,29.98,WSW,258,0.0,1.0,81,0.00,CLR,,0.00,WeatherDisplay:10.37,2013-06-24 10:19:00,
2013-06-24 20:24:00,52.9,47.2,29.98,WNW,286,1.0,1.0,81,0.00,CLR,,0.00,WeatherDisplay:10.37,2013-06-24 10:24:00,
2013-06-24 20:29:00,53.2,47.6,29.98,NNW,340,0.0,1.0,81,0.00,CLR,,0.00,WeatherDisplay:10.37,2013-06-24 10:29:00,
2013-06-24 20:34:00,53.2,47.6,29.98,NW,321,0.0,1.0,81,0.00,CLR,,0.00,WeatherDisplay:10.37,2013-06-24 10:34:00,
2013-06-24 20:39:00,52.9,46.9,29.98,SW,220,0.0,0.0,80,0.00,CLR,,0.00,WeatherDisplay:10.37,2013-06-24 10:39:00,
2013-06-24 20:44:00,52.5,46.5,29.97,South,184,0.0,1.0,80,0.00,CLR,,0.00,WeatherDisplay:10.37,2013-06-24 10:44:00,
2013-06-24 20:49:00,52.3,46.4,29.97,SW,220,0.0,1.0,80,0.00,CLR,,0.00,WeatherDisplay:10.37,2013-06-24 10:49:00,
2013-06-24 20:54:00,52.0,46.4,29.98,WNW,284,1.0,2.0,81,0.00,CLR,,0.00,WeatherDisplay:10.37,2013-06-24 10:54:00,
2013-06-24 21:04:00,52.2,46.5,29.97,NNW,330,0.0,1.0,81,0.00,CLR,,0.00,WeatherDisplay:10.37,2013-06-24 11:04:00,
2013-06-24 21:09:00,52.2,46.5,29.97,NNW,330,1.0,2.0,81,0.00,CLR,,0.00,WeatherDisplay:10.37,2013-06-24 11:09:00,
2013-06-24 21:14:00,52.2,46.5,29.97,NNW,328,2.0,5.0,81,0.00,CLR,,0.00,WeatherDisplay:10.37,2013-06-24 11:14:00,
2013-06-24 21:19:00,52.3,46.7,29.97,NNW,328,2.0,5.0,81,0.00,CLR,,0.00,WeatherDisplay:10.37,2013-06-24 11:19:00,
2013-06-24 21:24:00,52.3,46.7,29.97,NW,325,2.0,4.0,81,0.00,CLR,,0.00,WeatherDisplay:10.37,2013-06-24 11:24:00,
2013-06-24 21:29:00,52.3,46.4,29.97,NNW,334,2.0,5.0,80,0.00,CLR,,0.00,WeatherDisplay:10.37,2013-06-24 11:29:00,
2013-06-24 21:34:00,52.3,46.0,29.97,NNW,339,1.0,4.0,79,0.00,CLR,,0.00,WeatherDisplay:10.37,2013-06-24 11:34:00,
2013-06-24 21:39:00,52.2,45.8,29.97,NNW,336,2.0,5.0,79,0.00,CLR,,0.00,WeatherDisplay:10.37,2013-06-24 11:39:00,
2013-06-24 21:44:00,52.0,45.7,29.97,NNW,333,1.0,3.0,79,0.00,CLR,,0.00,WeatherDisplay:10.37,2013-06-24 11:44:00,
2013-06-24 21:49:00,52.1,45.8,29.97,NNW,328,1.0,3.0,79,0.00,CLR,,0.00,WeatherDisplay:10.37,2013-06-24 11:49:00,
2013-06-24 21:54:00,52.1,45.8,29.96,NNW,329,0.0,1.0,79,0.00,CLR,,0.00,WeatherDisplay:10.37,2013-06-24 11:54:00,
2013-06-24 21:59:00,52.0,45.7,29.96,NW,317,0.0,2.0,79,0.00,CLR,,0.00,WeatherDisplay:10.37,2013-06-24 11:59:00,
2013-06-24 22:05:00,52.0,45.3,29.96,NW,325,0.0,2.0,78,0.00,CLR,,0.00,WeatherDisplay:10.37,2013-06-24 12:05:00,
2013-06-24 22:14:00,51.6,45.0,29.97,North,351,1.0,3.0,78,0.00,CLR,,0.00,WeatherDisplay:10.37,2013-06-24 12:14:00,
2013-06-24 22:19:00,51.6,45.0,29.97,North,349,1.0,3.0,78,0.00,CLR,,0.00,WeatherDisplay:10.37,2013-06-24 12:19:00,
2013-06-24 22:24:00,51.4,44.5,29.97,North,352,1.0,5.0,77,0.00,CLR,,0.00,WeatherDisplay:10.37,2013-06-24 12:24:00,
2013-06-24 22:34:00,51.4,44.5,29.97,North,349,1.0,3.0,77,0.00,CLR,,0.00,WeatherDisplay:10.37,2013-06-24 12:34:00,
2013-06-24 22:39:00,51.5,44.5,29.97,North,356,0.0,2.0,77,0.00,CLR,,0.00,WeatherDisplay:10.37,2013-06-24 12:39:00,
2013-06-24 22:44:00,51.6,44.6,29.97,NNW,340,0.0,1.0,77,0.00,CLR,,0.00,WeatherDisplay:10.37,2013-06-24 12:44:00,
2013-06-24 22:49:00,51.6,44.6,29.96,NW,325,0.0,1.0,77,0.00,CLR,,0.00,WeatherDisplay:10.37,2013-06-24 12:49:00,
2013-06-24 22:54:00,51.4,44.5,29.96,NW,321,0.0,1.0,77,0.00,CLR,,0.00,WeatherDisplay:10.37,2013-06-24 12:54:00,
2013-06-24 22:59:00,51.4,44.5,29.96,NW,319,2.0,5.0,77,0.00,CLR,,0.00,WeatherDisplay:10.37,2013-06-24 12:59:00,
2013-06-24 23:04:00,51.4,44.5,29.96,NW,321,1.0,4.0,77,0.00,CLR,,0.00,WeatherDisplay:10.37,2013-06-24 13:04:00,
2013-06-24 23:14:00,51.4,44.5,29.96,NW,316,1.0,5.0,77,0.00,CLR,,0.00,WeatherDisplay:10.37,2013-06-24 13:14:00,
2013-06-24 23:19:00,51.4,44.5,29.96,NW,319,2.0,3.0,77,0.00,CLR,,0.00,WeatherDisplay:10.37,2013-06-24 13:19:00,
2013-06-24 23:24:00,51.4,44.5,29.95,NW,317,1.0,3.0,77,0.00,CLR,,0.00,WeatherDisplay:10.37,2013-06-24 13:24:00,
2013-06-24 23:34:00,51.6,44.6,29.94,WNW,299,1.0,4.0,77,0.00,CLR,,0.00,WeatherDisplay:10.37,2013-06-24 13:34:00,
2013-06-24 23:39:00,51.6,44.6,29.94,WNW,288,2.0,6.0,77,0.00,CLR,,0.00,WeatherDisplay:10.37,2013-06-24 13:39:00,
2013-06-24 23:44:00,51.4,44.5,29.94,WNW,303,2.0,5.0,77,0.00,CLR,,0.00,WeatherDisplay:10.37,2013-06-24 13:44:00,
2013-06-24 23:49:00,51.6,44.6,29.94,WNW,297,1.0,6.0,77,0.00,CLR,,0.00,WeatherDisplay:10.37,2013-06-24 13:49:00,
2013-06-24 23:54:00,51.6,44.6,29.94,NW,305,2.0,6.0,77,0.00,CLR,,0.00,WeatherDisplay:10.37,2013-06-24 13:54:00,
2013-06-24 23:59:00,51.4,44.5,29.94,NW,308,1.0,5.0,77,0.00,CLR,,0.00,WeatherDisplay:10.37,2013-06-24 13:59:00,